Time;durP1;ratioP1;P1;durP2;ratioP2;P2;SDS_P1;SDS_P2;PMS_P1;PMS_P2;Temp;Humidity;BMP_temperature;BMP_pressure;BME280_temperature;BME280_humidity;BME280_pressure;Samples;Min_cycle;Max_cycle;Signal;HPM_P1;HPM_P2
2022/08/30 00:03:14;;;;;;;0.40;0.40;;;15.90;1.00;;;;;;5035757;28;20852;-78
2022/08/30 00:05:41;;;;;;;0.40;0.40;;;15.90;9.40;;;;;;5036326;28;20242;-79
2022/08/30 00:08:07;;;;;;;0.40;0.40;;;16.00;9.70;;;;;;5036295;28;20184;-79
2022/08/30 00:10:33;;;;;;;0.30;0.30;;;15.90;38.20;;;;;;5035342;28;20192;-79
2022/08/30 00:12:59;;;;;;;0.50;0.50;;;15.90;15.40;;;;;;5035282;28;20385;-79
2022/08/30 00:15:25;;;;;;;0.40;0.40;;;15.80;1.00;;;;;;5035784;28;20180;-78
2022/08/30 00:17:52;;;;;;;0.30;0.30;;;15.70;1.00;;;;;;5035663;28;20238;-78
2022/08/30 00:20:23;;;;;;;0.40;0.40;;;15.60;1.00;;;;;;5035059;28;20179;-79
2022/08/30 00:22:49;;;;;;;0.40;0.40;;;15.60;21.40;;;;;;5035102;28;20238;-77
2022/08/30 00:25:15;;;;;;;0.50;0.50;;;15.70;27.80;;;;;;5035777;28;20211;-78
2022/08/30 00:27:41;;;;;;;0.50;0.50;;;15.60;49.10;;;;;;5035640;28;20176;-78
2022/08/30 00:30:08;;;;;;;0.30;0.30;;;15.60;63.20;;;;;;5035105;28;20214;-77
2022/08/30 00:32:33;;;;;;;0.50;0.50;;;15.70;47.80;;;;;;5035080;28;20195;-77
2022/08/30 00:34:59;;;;;;;0.50;0.50;;;15.70;52.30;;;;;;5035803;28;20187;-80
2022/08/30 00:37:25;;;;;;;0.40;0.40;;;15.80;49.60;;;;;;5036760;28;20223;-81
2022/08/30 00:39:50;;;;;;;0.50;0.50;;;15.70;94.90;;;;;;5035942;28;20243;-78
2022/08/30 00:42:18;;;;;;;0.40;0.40;;;15.70;97.30;;;;;;5036658;28;20179;-78
2022/08/30 00:44:44;;;;;;;0.40;0.40;;;15.60;84.50;;;;;;5035242;28;20563;-80
2022/08/30 00:47:10;;;;;;;0.40;0.40;;;15.60;64.00;;;;;;5035216;28;20554;-79
2022/08/30 00:49:40;;;;;;;0.37;0.37;;;15.50;40.50;;;;;;5035431;28;20199;-79
2022/08/30 00:52:07;;;;;;;0.33;0.33;;;15.40;22.10;;;;;;5035715;28;20186;-78
2022/08/30 00:54:36;;;;;;;0.50;0.50;;;15.50;7.00;;;;;;5035232;28;20195;-79
2022/08/30 00:57:03;;;;;;;0.40;0.40;;;15.30;14.70;;;;;;5039352;28;20215;-78
2022/08/30 00:59:29;;;;;;;0.50;0.50;;;15.40;61.90;;;;;;5042839;28;20176;-78
2022/08/30 01:01:55;;;;;;;0.40;0.40;;;15.40;78.90;;;;;;5042008;28;20184;-78
2022/08/30 01:04:24;;;;;;;0.40;0.40;;;15.40;91.70;;;;;;5042059;28;20748;-78
2022/08/30 01:06:50;;;;;;;0.40;0.40;;;15.30;91.60;;;;;;5042279;28;20183;-78
2022/08/30 01:09:16;;;;;;;0.50;0.50;;;15.30;98.40;;;;;;5041990;28;20180;-79
2022/08/30 01:11:43;;;;;;;0.40;0.40;;;15.30;99.90;;;;;;5037598;28;20207;-78
2022/08/30 01:14:13;;;;;;;0.47;0.47;;;15.40;99.90;;;;;;5034398;28;20245;-79
2022/08/30 01:16:42;;;;;;;0.47;0.47;;;15.40;99.90;;;;;;5035228;28;20250;-78
2022/08/30 01:19:37;;;;;;;0.50;0.50;;;15.30;99.90;;;;;;5034754;28;20176;-78
2022/08/30 01:22:25;;;;;;;0.50;0.50;;;15.40;99.90;;;;;;5034215;28;20208;-78
2022/08/30 01:24:54;;;;;;;0.40;0.40;;;15.30;99.90;;;;;;5034673;28;20202;-78
2022/08/30 01:27:22;;;;;;;0.30;0.30;;;15.20;99.90;;;;;;5034341;28;20707;-78
2022/08/30 01:29:48;;;;;;;0.40;0.40;;;15.20;99.90;;;;;;5034216;28;20183;-78
2022/08/30 01:32:23;;;;;;;0.40;0.40;;;15.10;99.90;;;;;;5034231;28;20180;-79
2022/08/30 01:34:49;;;;;;;0.40;0.40;;;15.10;99.90;;;;;;5034834;28;20591;-78
2022/08/30 01:37:26;;;;;;;0.40;0.40;;;15.10;99.90;;;;;;5034828;28;20180;-78
2022/08/30 01:39:52;;;;;;;0.40;0.40;;;15.00;99.90;;;;;;5018188;28;20601;-78
2022/08/30 01:42:18;;;;;;;0.40;0.40;;;15.00;99.90;;;;;;5034440;28;20172;-80
2022/08/30 01:44:45;;;;;;;0.47;0.47;;;14.90;99.90;;;;;;5034377;28;20230;-78
2022/08/30 01:47:11;;;;;;;0.40;0.40;;;14.90;99.90;;;;;;5034809;28;20187;-79
2022/08/30 01:49:37;;;;;;;0.40;0.40;;;14.90;99.90;;;;;;5033025;28;20191;-78
2022/08/30 01:52:04;;;;;;;0.40;0.40;;;15.00;99.90;;;;;;5033886;28;20184;-78
2022/08/30 01:54:30;;;;;;;0.40;0.40;;;15.00;99.90;;;;;;5033920;28;20286;-77
2022/08/30 01:56:56;;;;;;;0.50;0.50;;;15.00;99.90;;;;;;5034122;28;20212;-78
2022/08/30 01:59:21;;;;;;;0.40;0.40;;;15.00;99.90;;;;;;5032683;28;20179;-80
2022/08/30 02:01:47;;;;;;;0.40;0.40;;;14.90;99.90;;;;;;5034460;28;20214;-79
2022/08/30 02:04:13;;;;;;;0.40;0.40;;;14.80;99.90;;;;;;5034384;28;20700;-77
2022/08/30 02:06:39;;;;;;;0.40;0.40;;;14.70;99.90;;;;;;5033887;28;20183;-78
2022/08/30 02:09:05;;;;;;;0.57;0.57;;;14.60;99.90;;;;;;5033938;28;20187;-79
2022/08/30 02:11:30;;;;;;;0.70;0.70;;;14.50;99.90;;;;;;5034155;28;20179;-77
2022/08/30 02:13:56;;;;;;;0.40;0.40;;;14.60;99.90;;;;;;5033454;28;20294;-78
2022/08/30 02:16:23;;;;;;;0.40;0.40;;;14.60;99.90;;;;;;5033884;28;20187;-79
2022/08/30 02:18:50;;;;;;;0.40;0.40;;;14.50;99.90;;;;;;5019903;28;20652;-78
2022/08/30 02:21:16;;;;;;;0.40;0.40;;;14.50;99.90;;;;;;5033134;28;20180;-78
2022/08/30 02:23:42;;;;;;;0.40;0.40;;;14.60;99.90;;;;;;5033739;28;20211;-78
2022/08/30 02:26:08;;;;;;;0.30;0.30;;;14.60;99.90;;;;;;5033248;28;20219;-79
2022/08/30 02:28:34;;;;;;;0.50;0.50;;;14.60;99.90;;;;;;5034199;28;20235;-79
2022/08/30 02:31:01;;;;;;;0.40;0.40;;;14.60;99.90;;;;;;5020164;28;20183;-78
2022/08/30 02:33:26;;;;;;;0.40;0.40;;;14.40;99.90;;;;;;5034416;28;20681;-78
2022/08/30 02:35:52;;;;;;;0.40;0.40;;;14.40;99.90;;;;;;5033919;28;20180;-78
2022/08/30 02:38:18;;;;;;;0.40;0.40;;;14.40;99.90;;;;;;5032795;28;20191;-79
2022/08/30 02:40:43;;;;;;;0.40;0.40;;;14.40;99.90;;;;;;5032382;28;20272;-78
2022/08/30 02:43:10;;;;;;;0.47;0.47;;;14.50;99.90;;;;;;5032936;28;20222;-78
2022/08/30 02:45:36;;;;;;;0.30;0.30;;;14.40;99.90;;;;;;5032580;28;20215;-78
2022/08/30 02:48:02;;;;;;;0.50;0.50;;;14.40;99.90;;;;;;5033432;28;20179;-77
2022/08/30 02:50:27;;;;;;;0.43;0.43;;;14.40;99.90;;;;;;5032347;28;20187;-79
2022/08/30 02:52:53;;;;;;;0.40;0.40;;;14.50;99.90;;;;;;5032968;28;20659;-79
2022/08/30 02:55:19;;;;;;;0.50;0.50;;;14.40;99.90;;;;;;5033055;28;20179;-79
2022/08/30 02:57:45;;;;;;;0.37;0.37;;;14.40;99.90;;;;;;5015677;28;20175;-79
2022/08/30 03:00:15;;;;;;;0.50;0.50;;;14.40;99.90;;;;;;5032071;28;20192;-79
2022/08/30 03:02:40;;;;;;;0.40;0.40;;;14.40;99.90;;;;;;5030063;28;20203;-77
2022/08/30 03:05:08;;;;;;;0.40;0.40;;;14.20;99.90;;;;;;5032868;28;20632;-79
2022/08/30 03:07:33;;;;;;;0.40;0.40;;;14.10;99.90;;;;;;5032875;28;20211;-78
2022/08/30 03:09:59;;;;;;;0.40;0.40;;;14.10;99.90;;;;;;5033208;28;20203;-78
2022/08/30 03:12:24;;;;;;;0.50;0.50;;;14.10;99.90;;;;;;5036764;28;20187;-78
2022/08/30 03:14:50;;;;;;;0.40;0.40;;;14.10;99.90;;;;;;5037376;28;20179;-78
2022/08/30 03:17:16;;;;;;;0.50;0.50;;;14.00;99.90;;;;;;5037843;28;20182;-79
2022/08/30 03:19:43;;;;;;;0.40;0.40;;;13.80;99.90;;;;;;5037915;28;20188;-79
2022/08/30 03:22:09;;;;;;;0.40;0.40;;;14.00;99.90;;;;;;5037527;28;20629;-79
2022/08/30 03:24:35;;;;;;;0.40;0.40;;;14.00;99.90;;;;;;5037234;28;20242;-79
2022/08/30 03:27:01;;;;;;;0.50;0.50;;;14.10;99.90;;;;;;5037856;28;20179;-79
2022/08/30 03:29:28;;;;;;;0.40;0.40;;;14.20;99.90;;;;;;5037434;28;20183;-79
2022/08/30 03:31:55;;;;;;;0.47;0.47;;;14.20;99.90;;;;;;5037793;28;20188;-79
2022/08/30 03:34:21;;;;;;;0.40;0.40;;;14.10;99.90;;;;;;5037509;28;20211;-79
2022/08/30 03:36:48;;;;;;;0.47;0.47;;;14.10;99.90;;;;;;5038362;28;20188;-79
2022/08/30 03:39:14;;;;;;;0.40;0.40;;;14.10;99.90;;;;;;5037069;28;20184;-79
2022/08/30 03:41:39;;;;;;;0.60;0.60;;;14.10;99.90;;;;;;5037922;28;20179;-78
2022/08/30 03:44:05;;;;;;;0.50;0.50;;;14.00;99.90;;;;;;5037900;28;20273;-80
2022/08/30 03:46:30;;;;;;;0.50;0.50;;;13.90;99.90;;;;;;5038061;28;20188;-79
2022/08/30 03:48:56;;;;;;;0.50;0.50;;;13.90;99.90;;;;;;5020145;28;20179;-80
2022/08/30 03:51:25;;;;;;;0.50;0.50;;;13.90;99.90;;;;;;5038560;28;20180;-80
2022/08/30 03:53:51;;;;;;;0.50;0.50;;;13.70;99.90;;;;;;5037493;28;20210;-80
2022/08/30 03:56:17;;;;;;;0.67;0.67;;;13.60;99.90;;;;;;5036785;28;20261;-79
2022/08/30 03:58:44;;;;;;;0.60;0.60;;;13.60;99.90;;;;;;5037041;28;20175;-79
2022/08/30 04:01:10;;;;;;;0.57;0.57;;;13.50;99.90;;;;;;5036654;28;20270;-79
2022/08/30 04:03:36;;;;;;;0.60;0.60;;;13.50;99.90;;;;;;5036793;28;20238;-79
2022/08/30 04:06:02;;;;;;;0.50;0.50;;;13.40;99.90;;;;;;5036388;28;20250;-79
2022/08/30 04:08:27;;;;;;;0.50;0.50;;;13.40;99.90;;;;;;5036381;28;20213;-79
2022/08/30 04:10:54;;;;;;;0.60;0.60;;;13.40;99.90;;;;;;5036291;28;20361;-79
2022/08/30 04:13:21;;;;;;;0.50;0.50;;;13.40;99.90;;;;;;5036821;28;20208;-79
2022/08/30 04:15:47;;;;;;;0.50;0.50;;;13.50;99.90;;;;;;5036857;28;20188;-79
2022/08/30 04:18:13;;;;;;;0.50;0.50;;;13.50;99.90;;;;;;5035809;28;20206;-79
2022/08/30 04:20:39;;;;;;;0.50;0.50;;;13.50;99.90;;;;;;5035794;28;20203;-79
2022/08/30 04:23:08;;;;;;;0.67;0.67;;;13.30;99.90;;;;;;5036515;28;20267;-79
2022/08/30 04:25:35;;;;;;;0.40;0.40;;;13.30;99.90;;;;;;5037751;28;20235;-79
2022/08/30 04:28:02;;;;;;;0.40;0.40;;;13.30;99.90;;;;;;5038837;28;20251;-80
2022/08/30 04:30:28;;;;;;;0.40;0.40;;;13.40;99.90;;;;;;5038300;28;20184;-80
2022/08/30 04:32:54;;;;;;;0.50;0.50;;;13.50;99.90;;;;;;5037628;28;20210;-79
2022/08/30 04:35:20;;;;;;;0.60;0.60;;;13.60;99.90;;;;;;5037143;28;20184;-79
2022/08/30 04:37:45;;;;;;;0.40;0.40;;;13.60;99.90;;;;;;5037073;28;20668;-79
2022/08/30 04:40:12;;;;;;;0.43;0.43;;;13.60;99.90;;;;;;5037870;28;20180;-79
2022/08/30 04:42:38;;;;;;;0.50;0.50;;;13.60;99.90;;;;;;5037513;28;20171;-79
2022/08/30 04:45:08;;;;;;;0.50;0.50;;;13.50;99.90;;;;;;5045890;23;20327;-80
2022/08/30 04:47:33;;;;;;;0.50;0.50;;;13.40;99.90;;;;;;5023625;28;20188;-81
2022/08/30 04:49:59;;;;;;;0.40;0.40;;;13.40;99.90;;;;;;5017361;28;20215;-81
2022/08/30 04:52:24;;;;;;;0.50;0.50;;;13.40;99.90;;;;;;5017767;28;20244;-80
2022/08/30 04:54:57;;;;;;;0.47;0.47;;;13.40;99.90;;;;;;5018342;28;20180;-80
2022/08/30 04:57:24;;;;;;;0.47;0.47;;;13.30;99.90;;;;;;5017977;28;20176;-80
2022/08/30 04:59:50;;;;;;;0.50;0.50;;;13.40;99.90;;;;;;5016173;28;20180;-79
2022/08/30 05:02:16;;;;;;;0.40;0.40;;;13.40;99.90;;;;;;5014933;28;20179;-77
2022/08/30 05:05:38;;;;;;;0.40;0.40;;;13.50;99.90;;;;;;5009658;28;20204;-78
2022/08/30 05:07:27;;;;;;;0.50;0.50;;;13.80;99.90;;;;;;5014736;28;20676;-78
2022/08/30 05:09:53;;;;;;;0.53;0.53;;;13.90;99.90;;;;;;5014340;28;20184;-79
2022/08/30 05:12:19;;;;;;;0.47;0.47;;;14.00;99.90;;;;;;5014546;28;20177;-80
2022/08/30 05:14:44;;;;;;;0.50;0.50;;;13.90;99.90;;;;;;5015198;28;20265;-79
2022/08/30 05:17:10;;;;;;;0.37;0.37;;;14.00;99.90;;;;;;5014885;28;20234;-78
2022/08/30 05:19:35;;;;;;;0.40;0.40;;;14.10;99.90;;;;;;5014311;28;20208;-79
2022/08/30 05:22:01;;;;;;;0.40;0.40;;;14.10;99.90;;;;;;5016423;28;20177;-78
2022/08/30 05:24:26;;;;;;;0.40;0.40;;;14.30;99.90;;;;;;5015828;28;20258;-77
2022/08/30 05:26:52;;;;;;;0.50;0.50;;;14.40;99.90;;;;;;5015452;28;20208;-78
2022/08/30 05:29:17;;;;;;;0.43;0.43;;;14.80;99.90;;;;;;5013782;28;20176;-78
2022/08/30 05:31:43;;;;;;;0.50;0.50;;;15.00;99.90;;;;;;5013310;28;20650;-77
2022/08/30 05:34:09;;;;;;;0.40;0.40;;;14.70;99.90;;;;;;5014560;28;20197;-78
2022/08/30 05:36:36;;;;;;;0.50;0.50;;;14.90;99.90;;;;;;5015254;28;20184;-79
2022/08/30 05:39:06;;;;;;;0.50;0.50;;;15.30;99.90;;;;;;5017567;28;20668;-78
2022/08/30 05:41:31;;;;;;;0.40;0.40;;;15.70;87.20;;;;;;5016668;28;20180;-78
2022/08/30 05:43:59;;;;;;;0.50;0.50;;;15.50;67.90;;;;;;5015293;28;20629;-79
2022/08/30 05:46:28;;;;;;;0.43;0.43;;;15.50;92.40;;;;;;5014987;28;20236;-78
2022/08/30 05:48:55;;;;;;;0.50;0.50;;;15.70;94.60;;;;;;5010983;28;20263;-78
2022/08/30 05:51:24;;;;;;;0.50;0.50;;;16.00;99.90;;;;;;5015827;28;20188;-78
2022/08/30 05:53:52;;;;;;;0.40;0.40;;;16.30;95.20;;;;;;5012652;28;20630;-79
2022/08/30 05:56:21;;;;;;;0.50;0.50;;;16.50;93.10;;;;;;5025118;28;20203;-79
2022/08/30 05:58:47;;;;;;;0.40;0.40;;;16.70;96.20;;;;;;5034579;28;20186;-79
2022/08/30 06:01:23;;;;;;;0.47;0.47;;;16.70;93.50;;;;;;5034374;28;20184;-81
2022/08/30 06:03:50;;;;;;;0.40;0.40;;;16.50;54.30;;;;;;5014897;28;20200;-79
2022/08/30 06:06:16;;;;;;;0.40;0.40;;;16.50;92.80;;;;;;5014565;28;20236;-78
2022/08/30 06:08:44;;;;;;;0.40;0.40;;;16.50;99.90;;;;;;5012897;28;20172;-78
2022/08/30 06:11:18;;;;;;;0.30;0.30;;;16.70;99.90;;;;;;5012801;28;20192;-82
2022/08/30 06:13:46;;;;;;;0.40;0.40;;;16.90;92.80;;;;;;5012836;28;20197;-79
2022/08/30 06:16:13;;;;;;;0.40;0.40;;;17.10;56.70;;;;;;5012578;28;20188;-80
2022/08/30 06:18:39;;;;;;;0.40;0.40;;;17.20;66.10;;;;;;5012308;28;20176;-79
2022/08/30 06:21:05;;;;;;;0.33;0.33;;;17.40;24.90;;;;;;5011869;28;20202;-80
2022/08/30 06:23:30;;;;;;;0.43;0.43;;;17.50;16.30;;;;;;5010569;28;20283;-76
2022/08/30 06:26:05;;;;;;;0.40;0.40;;;17.50;1.00;;;;;;5004850;28;20828;-76
2022/08/30 06:28:31;;;;;;;0.50;0.50;;;17.70;1.00;;;;;;5011616;28;20176;-78
2022/08/30 06:30:57;;;;;;;0.40;0.40;;;18.00;1.00;;;;;;5011070;28;20184;-77
2022/08/30 06:33:23;;;;;;;0.40;0.40;;;18.20;1.00;;;;;;5011069;28;20607;-77
2022/08/30 06:35:48;;;;;;;0.30;0.30;;;18.50;1.00;;;;;;5012084;28;20176;-76
2022/08/30 06:38:14;;;;;;;0.37;0.37;;;18.50;1.00;;;;;;5012025;28;20238;-77
2022/08/30 06:40:39;;;;;;;0.37;0.37;;;18.50;1.00;;;;;;5011259;28;20180;-76
2022/08/30 06:43:05;;;;;;;0.40;0.40;;;18.60;99.90;;;;;;5012164;28;20572;-78
2022/08/30 06:45:33;;;;;;;0.30;0.30;;;18.50;1.00;;;;;;5011132;28;20224;-77
2022/08/30 06:47:59;;;;;;;0.40;0.40;;;18.80;99.90;;;;;;5012131;28;20172;-78
2022/08/30 06:50:24;;;;;;;0.30;0.30;;;19.00;1.00;;;;;;5011365;28;20207;-76
2022/08/30 06:52:50;;;;;;;0.40;0.40;;;19.20;99.90;;;;;;5010289;28;20254;-75
2022/08/30 06:55:17;;;;;;;0.30;0.30;;;19.40;99.90;;;;;;5011289;28;20188;-76
2022/08/30 06:57:43;;;;;;;0.23;0.23;;;20.10;1.00;;;;;;5011434;28;20183;-74
2022/08/30 07:00:12;;;;;;;0.30;0.30;;;20.70;99.90;;;;;;5010860;28;20172;-76
2022/08/30 07:02:38;;;;;;;0.30;0.30;;;20.40;1.00;;;;;;5011719;28;20207;-78
2022/08/30 07:05:05;;;;;;;0.40;0.40;;;20.00;99.90;;;;;;5011670;28;20206;-77
2022/08/30 07:07:30;;;;;;;0.40;0.40;;;19.90;1.00;;;;;;5011405;28;20184;-76
2022/08/30 07:09:56;;;;;;;0.27;0.27;;;20.00;99.90;;;;;;5011171;28;20172;-76
2022/08/30 07:12:22;;;;;;;0.30;0.30;;;19.90;99.90;;;;;;5011618;28;20650;-76
2022/08/30 07:14:47;;;;;;;0.30;0.30;;;20.20;99.90;;;;;;5011053;28;20642;-77
2022/08/30 07:19:57;;;;;;;0.30;0.30;;;21.00;1.00;;;;;;5011053;28;20676;-76
2022/08/30 07:22:23;;;;;;;0.40;0.40;;;22.00;1.00;;;;;;5011715;28;20177;-75
2022/08/30 07:24:49;;;;;;;0.30;0.30;;;22.40;99.90;;;;;;4994172;28;20208;-80
2022/08/30 07:27:14;;;;;;;0.30;0.30;;;22.90;23.40;;;;;;5011955;28;20208;-81
2022/08/30 07:29:40;;;;;;;0.40;0.40;;;23.00;1.00;;;;;;5012900;28;20558;-80
2022/08/30 07:32:06;;;;;;;0.50;0.50;;;23.30;1.00;;;;;;5012142;28;20870;-77
2022/08/30 07:34:32;;;;;;;0.40;0.40;;;23.40;1.00;;;;;;5011794;28;20197;-78
2022/08/30 07:36:57;;;;;;;0.60;0.60;;;23.70;1.00;;;;;;5012311;28;20647;-80
2022/08/30 07:39:23;;;;;;;0.50;0.50;;;23.80;1.00;;;;;;5011741;28;20264;-77
2022/08/30 07:41:49;;;;;;;0.50;0.50;;;24.00;1.00;;;;;;5011644;28;20255;-77
2022/08/30 07:44:15;;;;;;;0.53;0.53;;;24.50;1.00;;;;;;5011325;28;20208;-77
2022/08/30 07:46:41;;;;;;;0.70;0.70;;;25.00;1.00;;;;;;5010903;28;20269;-79
2022/08/30 07:49:08;;;;;;;0.60;0.60;;;24.90;1.00;;;;;;5016341;28;20668;-77
2022/08/30 07:51:34;;;;;;;0.50;0.50;;;25.10;1.00;;;;;;5022271;28;20212;-79
2022/08/30 07:53:59;;;;;;;0.63;0.63;;;25.10;1.00;;;;;;5011683;28;20227;-79
2022/08/30 07:56:25;;;;;;;0.60;0.60;;;25.20;1.00;;;;;;5011292;28;20177;-79
2022/08/30 07:58:51;;;;;;;0.50;0.50;;;25.40;1.00;;;;;;5014366;28;20184;-87
2022/08/30 08:01:19;;;;;;;0.60;0.60;;;25.30;1.00;;;;;;5014704;28;20216;-79
2022/08/30 08:03:46;;;;;;;0.60;0.60;;;25.30;1.00;;;;;;5014615;28;20689;-77
2022/08/30 08:06:15;;;;;;;0.50;0.50;;;25.20;1.00;;;;;;5014907;28;20226;-79
2022/08/30 08:08:41;;;;;;;0.70;0.70;;;25.10;1.00;;;;;;5014726;28;20176;-79
2022/08/30 08:11:17;;;;;;;0.70;0.70;;;25.80;1.00;;;;;;5014037;28;20555;-77
2022/08/30 08:13:44;;;;;;;0.60;0.60;;;25.60;1.00;;;;;;5016476;28;20196;-79
2022/08/30 08:16:10;;;;;;;0.60;0.60;;;25.90;1.00;;;;;;5018209;28;20865;-79
2022/08/30 08:18:36;;;;;;;0.70;0.70;;;26.00;1.00;;;;;;5015915;28;20204;-79
2022/08/30 08:21:01;;;;;;;0.53;0.53;;;25.90;1.00;;;;;;5015129;28;20566;-79
2022/08/30 08:23:28;;;;;;;0.60;0.60;;;26.20;1.00;;;;;;5015634;28;20192;-78
2022/08/30 08:25:54;;;;;;;0.50;0.50;;;26.70;1.00;;;;;;5015487;28;20208;-79
2022/08/30 08:28:20;;;;;;;0.70;0.70;;;27.30;1.00;;;;;;5014977;28;20176;-80
2022/08/30 08:30:48;;;;;;;0.60;0.60;;;26.90;1.00;;;;;;5014350;28;20176;-80
2022/08/30 08:33:14;;;;;;;0.50;0.50;;;26.80;1.00;;;;;;5014986;28;20540;-80
2022/08/30 08:35:40;;;;;;;0.70;0.70;;;26.80;1.00;;;;;;5014881;28;20660;-83
2022/08/30 08:38:06;;;;;;;0.40;0.40;;;27.40;1.00;;;;;;5014864;28;20251;-83
2022/08/30 08:40:40;;;;;;;0.50;0.50;;;27.20;1.00;;;;;;5014695;28;20203;-78
2022/08/30 08:43:11;;;;;;;0.45;0.45;;;27.20;1.00;;;;;;5015621;28;20200;-79
2022/08/30 08:46:03;;;;;;;0.60;0.60;;;27.40;1.00;;;;;;5015584;28;20222;-81
2022/08/30 08:48:44;;;;;;;0.38;0.38;;;28.20;1.00;;;;;;5015043;28;20176;-78
2022/08/30 08:54:10;;;;;;;0.30;0.30;;;28.40;1.00;;;;;;5017988;28;20327;-79
2022/08/30 08:56:37;;;;;;;0.47;0.47;;;28.40;1.00;;;;;;5014087;28;20226;-82
2022/08/30 08:59:06;;;;;;;0.43;0.43;;;27.90;1.00;;;;;;5016808;28;20188;-81
2022/08/30 09:01:32;;;;;;;0.32;0.32;;;28.10;1.00;;;;;;5016462;28;20239;-81
2022/08/30 09:04:02;;;;;;;0.38;0.38;;;28.20;1.00;;;;;;5017106;28;20669;-81
2022/08/30 09:06:52;;;;;;;0.43;0.43;;;28.50;1.00;;;;;;5018393;28;20228;-80
2022/08/30 09:09:24;;;;;;;0.38;0.38;;;28.90;1.00;;;;;;5014904;28;20708;-78
2022/08/30 09:11:50;;;;;;;0.25;0.25;;;29.30;1.00;;;;;;5013799;28;20184;-78
2022/08/30 09:14:20;;;;;;;0.20;0.20;;;29.50;1.00;;;;;;5013703;28;20234;-80
2022/08/30 09:16:56;;;;;;;0.15;0.15;;;29.80;1.00;;;;;;5013366;28;20282;-80
2022/08/30 09:19:38;;;;;;;0.20;0.20;;;29.80;1.00;;;;;;5013971;28;20270;-80
2022/08/30 09:22:35;;;;;;;0.10;0.10;;;30.00;1.00;;;;;;5013061;28;20243;-80
2022/08/30 09:25:02;;;;;;;0.30;0.30;;;30.80;1.00;;;;;;5005972;28;20309;-79
2022/08/30 09:27:33;;;;;;;0.20;0.20;;;30.50;1.00;;;;;;5013618;28;20392;-80
2022/08/30 09:30:24;;;;;;;0.22;0.22;;;30.70;1.00;;;;;;5013554;28;20210;-81
2022/08/30 09:33:06;;;;;;;0.20;0.20;;;30.30;1.00;;;;;;5009858;28;20217;-79
2022/08/30 09:35:42;;;;;;;0.13;0.13;;;31.20;1.00;;;;;;5014428;28;20185;-79
2022/08/30 09:38:19;;;;;;;0.20;0.20;;;30.80;1.00;;;;;;5014698;28;20251;-79
2022/08/30 09:40:50;;;;;;;0.20;0.20;;;30.90;1.00;;;;;;4997109;28;20185;-79
2022/08/30 09:43:16;;;;;;;0.20;0.20;;;30.90;1.00;;;;;;5013968;28;20232;-79
2022/08/30 09:45:46;;;;;;;0.25;0.25;;;30.70;1.00;;;;;;5013718;28;20677;-78
2022/08/30 09:48:39;;;;;;;0.28;0.28;;;31.20;1.00;;;;;;5011241;28;20179;-79
2022/08/30 09:51:27;;;;;;;0.25;0.25;;;32.10;1.00;;;;;;5013845;28;20193;-80
2022/08/30 09:54:14;;;;;;;0.10;0.10;;;32.00;1.00;;;;;;5015982;28;20192;-81
2022/08/30 09:57:10;;;;;;;0.35;0.35;;;31.10;1.00;;;;;;5012851;28;20267;-78
2022/08/30 09:59:36;;;;;;;0.30;0.30;;;31.10;1.00;;;;;;5012106;28;20580;-78
2022/08/30 10:02:29;;;;;;;0.20;0.20;;;31.20;1.00;;;;;;5012761;28;20306;-80
2022/08/30 10:05:29;;;;;;;0.13;0.13;;;30.70;1.00;;;;;;5003174;28;20226;-81
2022/08/30 10:08:13;;;;;;;0.38;0.38;;;30.70;1.00;;;;;;5012791;28;20600;-77
2022/08/30 10:10:57;;;;;;;0.20;0.20;;;31.10;1.00;;;;;;5012014;28;20538;-79
2022/08/30 10:13:52;;;;;;;0.30;0.30;;;31.20;1.00;;;;;;5012689;28;20266;-79
2022/08/30 10:16:46;;;;;;;0.38;0.38;;;32.00;1.00;;;;;;5011343;28;20211;-78
2022/08/30 10:19:39;;;;;;;0.05;0.05;;;33.00;1.00;;;;;;5001750;28;20183;-78
2022/08/30 10:22:20;;;;;;;0.10;0.10;;;32.20;1.00;;;;;;5011713;28;20179;-78
2022/08/30 10:24:50;;;;;;;0.20;0.20;;;32.20;1.00;;;;;;5012054;28;20215;-78
2022/08/30 10:27:22;;;;;;;0.10;0.10;;;31.60;1.00;;;;;;5012098;28;20176;-78
2022/08/30 10:29:53;;;;;;;0.10;0.10;;;32.50;1.00;;;;;;5011704;28;20168;-79
2022/08/30 10:32:31;;;;;;;0.20;0.20;;;32.60;1.00;;;;;;5012017;28;20184;-78
2022/08/30 10:35:06;;;;;;;0.10;0.10;;;33.10;1.00;;;;;;5012711;28;20230;-78
2022/08/30 10:37:38;;;;;;;0.10;0.10;;;33.10;1.00;;;;;;5011142;28;20180;-79
2022/08/30 10:44:09;;;;;;;0.20;0.20;;;33.60;1.00;;;;;;5011671;28;20222;-78
2022/08/30 10:47:03;;;;;;;0.10;0.10;;;32.20;1.00;;;;;;4987572;28;20215;-77
2022/08/30 10:49:36;;;;;;;0.08;0.08;;;32.60;1.00;;;;;;5011144;28;20199;-79
2022/08/30 10:52:39;;;;;;;0.20;0.20;;;33.20;1.00;;;;;;5011248;28;20180;-80
2022/08/30 10:55:17;;;;;;;0.30;0.30;;;33.90;1.00;;;;;;5117121;23;20224;-81
2022/08/30 10:57:44;;;;;;;0.15;0.15;;;33.70;1.00;;;;;;5018704;28;20177;-80
2022/08/30 11:00:11;;;;;;;0.20;0.20;;;33.30;1.00;;;;;;5018566;28;20249;-81
2022/08/30 11:02:49;;;;;;;0.20;0.20;;;33.30;1.00;;;;;;5018280;28;20495;-79
2022/08/30 11:05:14;;;;;;;0.10;0.10;;;33.60;1.00;;;;;;5013615;28;20273;-79
2022/08/30 11:08:03;;;;;;;0.15;0.15;;;33.70;1.00;;;;;;5016528;28;20196;-81
2022/08/30 11:10:38;;;;;;;0.20;0.20;;;34.10;1.00;;;;;;5013085;28;20203;-80
2022/08/30 11:13:24;;;;;;;0.35;0.35;;;33.30;1.00;;;;;;5014086;28;20273;-79
2022/08/30 11:16:04;;;;;;;0.47;0.47;;;32.70;1.00;;;;;;5013523;28;20642;-79
2022/08/30 11:18:43;;;;;;;0.20;0.20;;;32.30;1.00;;;;;;5014176;28;20263;-79
2022/08/30 11:21:33;;;;;;;0.32;0.32;;;32.40;1.00;;;;;;5012949;28;20269;-78
2022/08/30 11:24:11;;;;;;;0.50;0.50;;;32.90;1.00;;;;;;5012168;28;20200;-77
2022/08/30 11:26:47;;;;;;;0.40;0.40;;;33.40;1.00;;;;;;5012384;28;20339;-77
2022/08/30 11:29:39;;;;;;;0.38;0.38;;;32.10;1.00;;;;;;5011780;28;20641;-77
2022/08/30 11:32:11;;;;;;;0.50;0.50;;;32.80;1.00;;;;;;5013972;28;20231;-77
2022/08/30 11:34:45;;;;;;;0.60;0.60;;;32.40;1.00;;;;;;5015812;28;20200;-79
2022/08/30 11:37:30;;;;;;;0.40;0.40;;;31.50;1.00;;;;;;5016753;28;20251;-78
2022/08/30 11:40:14;;;;;;;0.57;0.57;;;31.80;1.00;;;;;;5015219;28;20182;-78
2022/08/30 11:42:45;;;;;;;0.60;0.60;;;31.40;1.00;;;;;;5015253;28;20184;-78
2022/08/30 11:45:23;;;;;;;0.45;0.45;;;31.20;1.00;;;;;;5018241;28;20219;-78
2022/08/30 11:48:06;;;;;;;0.60;0.60;;;31.80;1.00;;;;;;5018896;28;20189;-78
2022/08/30 11:50:53;;;;;;;0.50;0.50;;;32.60;1.00;;;;;;5016498;28;20176;-78
2022/08/30 11:53:51;;;;;;;0.50;0.50;;;32.20;1.00;;;;;;5017979;28;20276;-77
2022/08/30 11:56:47;;;;;;;0.57;0.57;;;31.80;1.00;;;;;;5018111;28;20196;-77
2022/08/30 11:59:24;;;;;;;0.53;0.53;;;30.90;1.00;;;;;;5036522;28;20200;-77
2022/08/30 12:01:51;;;;;;;0.67;0.67;;;30.00;1.00;;;;;;5038872;28;20180;-77
2022/08/30 12:04:16;;;;;;;0.50;0.50;;;30.30;1.00;;;;;;5039966;28;20203;-78
2022/08/30 12:06:55;;;;;;;0.60;0.60;;;30.10;1.00;;;;;;5038556;28;20260;-76
2022/08/30 12:09:23;;;;;;;0.70;0.70;;;30.30;1.00;;;;;;5036448;28;20167;-75
2022/08/30 12:12:30;;;;;;;0.57;0.57;;;30.40;1.00;;;;;;5034634;28;20230;-76
2022/08/30 12:14:56;;;;;;;0.60;0.60;;;30.20;1.00;;;;;;5032838;28;20177;-77
2022/08/30 12:20:42;;;;;;;0.50;0.50;;;29.90;1.00;;;;;;5014043;28;20330;-77
2022/08/30 12:23:37;;;;;;;0.70;0.70;;;29.70;1.00;;;;;;5015822;28;20196;-79
2022/08/30 12:26:17;;;;;;;0.57;0.57;;;30.00;1.00;;;;;;5016219;28;20205;-77
2022/08/30 12:28:47;;;;;;;0.40;0.40;;;29.90;1.00;;;;;;5014904;28;20259;-76
2022/08/30 12:31:18;;;;;;;0.60;0.60;;;30.20;1.00;;;;;;5014683;28;20181;-77
2022/08/30 12:33:47;;;;;;;0.50;0.50;;;30.70;1.00;;;;;;5015646;28;20193;-77
2022/08/30 12:36:30;;;;;;;0.60;0.60;;;31.00;1.00;;;;;;5016604;28;20525;-77
2022/08/30 12:39:20;;;;;;;0.60;0.60;;;30.20;1.00;;;;;;5014667;28;20626;-78
2022/08/30 12:41:45;;;;;;;0.50;0.50;;;29.20;1.00;;;;;;5015735;28;20182;-77
2022/08/30 12:44:24;;;;;;;0.60;0.60;;;29.30;1.00;;;;;;5016674;28;20254;-77
2022/08/30 12:46:55;;;;;;;0.60;0.60;;;29.60;1.00;;;;;;5014622;28;20307;-76
2022/08/30 12:49:24;;;;;;;0.50;0.50;;;29.40;1.00;;;;;;5014108;28;20577;-77
2022/08/30 12:51:49;;;;;;;0.50;0.50;;;29.60;1.00;;;;;;5014025;28;20203;-77
2022/08/30 12:54:19;;;;;;;0.60;0.60;;;29.80;1.00;;;;;;5016093;28;20216;-77
2022/08/30 12:56:51;;;;;;;0.50;0.50;;;29.70;1.00;;;;;;5016870;28;20173;-77
2022/08/30 12:59:50;;;;;;;0.47;0.47;;;29.60;1.00;;;;;;5014524;28;20672;-77
2022/08/30 13:02:22;;;;;;;0.60;0.60;;;29.30;1.00;;;;;;5013639;28;20237;-76
2022/08/30 13:04:49;;;;;;;0.50;0.50;;;28.80;1.00;;;;;;5013668;28;20226;-77
2022/08/30 13:07:26;;;;;;;0.37;0.37;;;28.90;1.00;;;;;;5013274;28;20215;-76
2022/08/30 13:10:01;;;;;;;0.60;0.60;;;28.50;1.00;;;;;;5009104;28;20192;-80
2022/08/30 13:12:27;;;;;;;0.43;0.43;;;28.50;1.00;;;;;;5013852;28;20165;-78
2022/08/30 13:15:15;;;;;;;0.60;0.60;;;28.30;1.00;;;;;;5015978;28;20260;-79
2022/08/30 13:17:40;;;;;;;0.50;0.50;;;28.40;1.00;;;;;;5012888;28;20172;-78
2022/08/30 13:20:21;;;;;;;0.33;0.33;;;28.80;1.00;;;;;;5013251;28;20200;-77
2022/08/30 13:23:04;;;;;;;0.50;0.50;;;28.90;1.00;;;;;;5015004;28;20219;-78
2022/08/30 13:25:29;;;;;;;0.57;0.57;;;29.00;1.00;;;;;;5012772;28;20228;-77